sensor_id;sensor_type;location;lat;lon;timestamp;temperature;humidity
6662;DHT22;3367;48.714;8.994;2023-08-17T00:01:08;18.50;1.00
6662;DHT22;3367;48.714;8.994;2023-08-17T00:03:35;18.50;1.00
6662;DHT22;3367;48.714;8.994;2023-08-17T00:06:02;18.50;1.00
6662;DHT22;3367;48.714;8.994;2023-08-17T00:08:30;18.60;1.00
6662;DHT22;3367;48.714;8.994;2023-08-17T00:10:56;18.60;1.00
6662;DHT22;3367;48.714;8.994;2023-08-17T00:13:23;18.60;1.00
6662;DHT22;3367;48.714;8.994;2023-08-17T00:15:50;18.60;1.00
6662;DHT22;3367;48.714;8.994;2023-08-17T00:18:16;18.60;1.00
6662;DHT22;3367;48.714;8.994;2023-08-17T00:20:43;18.60;1.00
6662;DHT22;3367;48.714;8.994;2023-08-17T00:23:11;18.50;1.00
6662;DHT22;3367;48.714;8.994;2023-08-17T00:25:39;18.50;1.00
6662;DHT22;3367;48.714;8.994;2023-08-17T00:28:05;18.50;1.00
6662;DHT22;3367;48.714;8.994;2023-08-17T00:30:32;18.50;1.00
6662;DHT22;3367;48.714;8.994;2023-08-17T00:33:01;18.50;1.00
6662;DHT22;3367;48.714;8.994;2023-08-17T00:35:28;18.40;1.00
6662;DHT22;3367;48.714;8.994;2023-08-17T00:37:55;18.40;1.00
6662;DHT22;3367;48.714;8.994;2023-08-17T00:40:22;18.40;1.00
6662;DHT22;3367;48.714;8.994;2023-08-17T00:42:50;18.40;1.00
6662;DHT22;3367;48.714;8.994;2023-08-17T00:45:18;18.30;1.00
6662;DHT22;3367;48.714;8.994;2023-08-17T00:47:45;18.30;1.00
6662;DHT22;3367;48.714;8.994;2023-08-17T00:50:12;18.30;1.00
6662;DHT22;3367;48.714;8.994;2023-08-17T00:52:40;18.30;1.00
6662;DHT22;3367;48.714;8.994;2023-08-17T00:55:09;18.20;1.00
6662;DHT22;3367;48.714;8.994;2023-08-17T00:57:37;18.20;1.00
6662;DHT22;3367;48.714;8.994;2023-08-17T01:00:08;18.20;1.00
6662;DHT22;3367;48.714;8.994;2023-08-17T01:02:37;18.20;1.00
6662;DHT22;3367;48.714;8.994;2023-08-17T01:05:04;18.10;1.00
6662;DHT22;3367;48.714;8.994;2023-08-17T01:07:31;18.10;1.00
6662;DHT22;3367;48.714;8.994;2023-08-17T01:09:58;18.10;1.00
6662;DHT22;3367;48.714;8.994;2023-08-17T01:12:29;18.10;1.00
6662;DHT22;3367;48.714;8.994;2023-08-17T01:15:03;18.10;1.00
6662;DHT22;3367;48.714;8.994;2023-08-17T01:17:36;18.00;1.00
6662;DHT22;3367;48.714;8.994;2023-08-17T01:20:06;18.00;1.00
6662;DHT22;3367;48.714;8.994;2023-08-17T01:22:35;18.00;1.00
6662;DHT22;3367;48.714;8.994;2023-08-17T01:25:05;18.00;1.00
6662;DHT22;3367;48.714;8.994;2023-08-17T01:27:36;18.00;1.00
6662;DHT22;3367;48.714;8.994;2023-08-17T01:30:04;17.90;1.00
6662;DHT22;3367;48.714;8.994;2023-08-17T01:32:37;17.90;1.00
6662;DHT22;3367;48.714;8.994;2023-08-17T01:35:11;17.90;1.00
6662;DHT22;3367;48.714;8.994;2023-08-17T01:37:42;17.90;1.00
6662;DHT22;3367;48.714;8.994;2023-08-17T01:40:12;18.00;1.00
6662;DHT22;3367;48.714;8.994;2023-08-17T01:42:41;18.00;1.00
6662;DHT22;3367;48.714;8.994;2023-08-17T01:45:08;18.00;1.00
6662;DHT22;3367;48.714;8.994;2023-08-17T01:47:35;18.00;1.00
6662;DHT22;3367;48.714;8.994;2023-08-17T01:50:02;18.00;1.00
6662;DHT22;3367;48.714;8.994;2023-08-17T01:52:29;18.00;1.00
6662;DHT22;3367;48.714;8.994;2023-08-17T01:54:56;18.10;1.00
6662;DHT22;3367;48.714;8.994;2023-08-17T01:57:24;18.20;1.00
6662;DHT22;3367;48.714;8.994;2023-08-17T01:59:50;18.20;1.00
6662;DHT22;3367;48.714;8.994;2023-08-17T02:02:17;18.30;1.00
6662;DHT22;3367;48.714;8.994;2023-08-17T02:04:44;18.30;1.00
6662;DHT22;3367;48.714;8.994;2023-08-17T02:07:10;18.30;1.00
6662;DHT22;3367;48.714;8.994;2023-08-17T02:09:37;18.30;1.00
6662;DHT22;3367;48.714;8.994;2023-08-17T02:12:05;18.30;1.00
6662;DHT22;3367;48.714;8.994;2023-08-17T02:14:33;18.30;1.00
6662;DHT22;3367;48.714;8.994;2023-08-17T02:16:59;18.40;1.00
6662;DHT22;3367;48.714;8.994;2023-08-17T02:19:26;18.40;1.00
6662;DHT22;3367;48.714;8.994;2023-08-17T02:21:53;18.40;1.00
6662;DHT22;3367;48.714;8.994;2023-08-17T02:24:20;18.40;1.00
6662;DHT22;3367;48.714;8.994;2023-08-17T02:26:46;18.40;1.00
6662;DHT22;3367;48.714;8.994;2023-08-17T02:29:13;18.50;1.00
6662;DHT22;3367;48.714;8.994;2023-08-17T02:31:41;18.50;1.00
6662;DHT22;3367;48.714;8.994;2023-08-17T02:34:08;18.60;1.00
6662;DHT22;3367;48.714;8.994;2023-08-17T02:36:35;18.50;1.00
6662;DHT22;3367;48.714;8.994;2023-08-17T02:39:01;18.60;1.00
6662;DHT22;3367;48.714;8.994;2023-08-17T02:41:29;18.60;1.00
6662;DHT22;3367;48.714;8.994;2023-08-17T02:43:57;18.60;1.00
6662;DHT22;3367;48.714;8.994;2023-08-17T02:46:24;18.60;1.00
6662;DHT22;3367;48.714;8.994;2023-08-17T02:48:52;18.60;1.00
6662;DHT22;3367;48.714;8.994;2023-08-17T02:51:19;18.60;1.00
6662;DHT22;3367;48.714;8.994;2023-08-17T02:53:45;18.60;1.00
6662;DHT22;3367;48.714;8.994;2023-08-17T02:56:12;18.60;1.00
6662;DHT22;3367;48.714;8.994;2023-08-17T02:58:39;18.60;1.00
6662;DHT22;3367;48.714;8.994;2023-08-17T03:01:06;18.60;1.00
6662;DHT22;3367;48.714;8.994;2023-08-17T03:03:33;18.60;1.00
6662;DHT22;3367;48.714;8.994;2023-08-17T03:06:01;18.50;1.00
6662;DHT22;3367;48.714;8.994;2023-08-17T03:08:28;18.50;1.00
6662;DHT22;3367;48.714;8.994;2023-08-17T03:10:55;18.50;1.00
6662;DHT22;3367;48.714;8.994;2023-08-17T03:13:21;18.60;1.00
6662;DHT22;3367;48.714;8.994;2023-08-17T03:15:48;18.50;1.00
6662;DHT22;3367;48.714;8.994;2023-08-17T03:18:15;18.60;1.00
6662;DHT22;3367;48.714;8.994;2023-08-17T03:20:43;18.60;1.00
6662;DHT22;3367;48.714;8.994;2023-08-17T03:23:11;18.60;1.00
6662;DHT22;3367;48.714;8.994;2023-08-17T03:25:38;18.60;1.00
6662;DHT22;3367;48.714;8.994;2023-08-17T03:28:05;18.60;1.00
6662;DHT22;3367;48.714;8.994;2023-08-17T03:30:32;18.60;1.00
6662;DHT22;3367;48.714;8.994;2023-08-17T03:32:59;18.60;1.00
6662;DHT22;3367;48.714;8.994;2023-08-17T03:35:26;18.60;1.00
6662;DHT22;3367;48.714;8.994;2023-08-17T03:37:52;18.60;1.00
6662;DHT22;3367;48.714;8.994;2023-08-17T03:40:20;18.60;1.00
6662;DHT22;3367;48.714;8.994;2023-08-17T03:42:47;18.60;1.00
6662;DHT22;3367;48.714;8.994;2023-08-17T03:45:14;18.60;1.00
6662;DHT22;3367;48.714;8.994;2023-08-17T03:47:41;18.60;1.00
6662;DHT22;3367;48.714;8.994;2023-08-17T03:50:08;18.60;1.00
6662;DHT22;3367;48.714;8.994;2023-08-17T03:52:35;18.60;1.00
6662;DHT22;3367;48.714;8.994;2023-08-17T03:55:02;18.60;1.00
6662;DHT22;3367;48.714;8.994;2023-08-17T03:57:33;18.60;1.00
6662;DHT22;3367;48.714;8.994;2023-08-17T04:00:00;18.60;1.00
6662;DHT22;3367;48.714;8.994;2023-08-17T04:02:26;18.60;1.00
6662;DHT22;3367;48.714;8.994;2023-08-17T04:04:53;18.60;1.00
6662;DHT22;3367;48.714;8.994;2023-08-17T04:07:23;18.60;1.00
6662;DHT22;3367;48.714;8.994;2023-08-17T04:09:49;18.60;1.00
6662;DHT22;3367;48.714;8.994;2023-08-17T04:12:16;18.50;1.00
6662;DHT22;3367;48.714;8.994;2023-08-17T04:14:45;18.50;1.00
6662;DHT22;3367;48.714;8.994;2023-08-17T04:17:12;18.60;1.00
6662;DHT22;3367;48.714;8.994;2023-08-17T04:19:38;18.50;1.00
6662;DHT22;3367;48.714;8.994;2023-08-17T04:22:05;18.50;1.00
6662;DHT22;3367;48.714;8.994;2023-08-17T04:24:32;18.50;1.00
6662;DHT22;3367;48.714;8.994;2023-08-17T04:26:58;18.50;1.00
6662;DHT22;3367;48.714;8.994;2023-08-17T04:29:25;18.60;1.00
6662;DHT22;3367;48.714;8.994;2023-08-17T04:31:53;18.60;1.00
6662;DHT22;3367;48.714;8.994;2023-08-17T04:34:20;18.50;1.00
6662;DHT22;3367;48.714;8.994;2023-08-17T04:36:47;18.60;1.00
6662;DHT22;3367;48.714;8.994;2023-08-17T04:39:13;18.60;1.00
6662;DHT22;3367;48.714;8.994;2023-08-17T04:41:40;18.60;1.00
6662;DHT22;3367;48.714;8.994;2023-08-17T04:44:07;18.60;1.00
6662;DHT22;3367;48.714;8.994;2023-08-17T04:46:34;18.60;1.00
6662;DHT22;3367;48.714;8.994;2023-08-17T04:49:03;18.60;1.00
6662;DHT22;3367;48.714;8.994;2023-08-17T04:51:30;18.60;1.00
6662;DHT22;3367;48.714;8.994;2023-08-17T04:53:57;18.60;1.00
6662;DHT22;3367;48.714;8.994;2023-08-17T04:56:23;18.60;1.00
6662;DHT22;3367;48.714;8.994;2023-08-17T04:58:50;18.70;1.00
6662;DHT22;3367;48.714;8.994;2023-08-17T05:01:17;18.70;1.00
6662;DHT22;3367;48.714;8.994;2023-08-17T05:03:43;18.70;1.00
6662;DHT22;3367;48.714;8.994;2023-08-17T05:06:11;18.60;1.00
6662;DHT22;3367;48.714;8.994;2023-08-17T05:08:38;18.60;1.00
6662;DHT22;3367;48.714;8.994;2023-08-17T05:11:05;18.60;1.00
6662;DHT22;3367;48.714;8.994;2023-08-17T05:13:32;18.60;1.00
6662;DHT22;3367;48.714;8.994;2023-08-17T05:15:58;18.70;1.00
6662;DHT22;3367;48.714;8.994;2023-08-17T05:18:25;18.70;1.00
6662;DHT22;3367;48.714;8.994;2023-08-17T05:20:52;18.70;1.00
6662;DHT22;3367;48.714;8.994;2023-08-17T05:23:20;18.70;1.00
6662;DHT22;3367;48.714;8.994;2023-08-17T05:25:47;18.70;1.00
6662;DHT22;3367;48.714;8.994;2023-08-17T05:28:14;18.80;1.00
6662;DHT22;3367;48.714;8.994;2023-08-17T05:30:40;18.80;1.00
6662;DHT22;3367;48.714;8.994;2023-08-17T05:33:07;18.80;1.00
6662;DHT22;3367;48.714;8.994;2023-08-17T05:35:34;18.70;1.00
6662;DHT22;3367;48.714;8.994;2023-08-17T05:38:00;18.80;1.00
6662;DHT22;3367;48.714;8.994;2023-08-17T05:40:30;18.80;1.00
6662;DHT22;3367;48.714;8.994;2023-08-17T05:42:57;18.80;1.00
6662;DHT22;3367;48.714;8.994;2023-08-17T05:45:24;18.80;1.00
6662;DHT22;3367;48.714;8.994;2023-08-17T05:47:51;18.80;1.00
6662;DHT22;3367;48.714;8.994;2023-08-17T05:50:18;18.80;1.00
6662;DHT22;3367;48.714;8.994;2023-08-17T05:52:45;18.80;1.00
6662;DHT22;3367;48.714;8.994;2023-08-17T05:55:12;18.90;1.00
6662;DHT22;3367;48.714;8.994;2023-08-17T05:57:40;18.90;1.00
6662;DHT22;3367;48.714;8.994;2023-08-17T06:00:08;18.90;1.00
6662;DHT22;3367;48.714;8.994;2023-08-17T06:02:37;19.00;1.00
6662;DHT22;3367;48.714;8.994;2023-08-17T06:05:05;19.00;1.00
6662;DHT22;3367;48.714;8.994;2023-08-17T06:07:31;19.10;1.00
6662;DHT22;3367;48.714;8.994;2023-08-17T06:09:58;19.20;99.90
6662;DHT22;3367;48.714;8.994;2023-08-17T06:12:25;19.20;99.90
6662;DHT22;3367;48.714;8.994;2023-08-17T06:14:53;19.30;99.90
6662;DHT22;3367;48.714;8.994;2023-08-17T06:17:19;19.20;99.90
6662;DHT22;3367;48.714;8.994;2023-08-17T06:19:46;19.30;99.90
6662;DHT22;3367;48.714;8.994;2023-08-17T06:22:13;19.30;99.90
6662;DHT22;3367;48.714;8.994;2023-08-17T06:24:39;19.40;99.90
6662;DHT22;3367;48.714;8.994;2023-08-17T06:27:06;19.40;51.10
6662;DHT22;3367;48.714;8.994;2023-08-17T06:29:33;19.50;1.00
6662;DHT22;3367;48.714;8.994;2023-08-17T06:32:01;19.60;1.00
6662;DHT22;3367;48.714;8.994;2023-08-17T06:34:28;19.70;1.00
6662;DHT22;3367;48.714;8.994;2023-08-17T06:36:58;19.70;1.00
6662;DHT22;3367;48.714;8.994;2023-08-17T06:39:25;19.80;1.00
6662;DHT22;3367;48.714;8.994;2023-08-17T06:41:51;19.90;1.00
6662;DHT22;3367;48.714;8.994;2023-08-17T06:44:18;19.90;99.90
6662;DHT22;3367;48.714;8.994;2023-08-17T06:46:45;19.90;99.90
6662;DHT22;3367;48.714;8.994;2023-08-17T06:49:13;19.90;1.00
6662;DHT22;3367;48.714;8.994;2023-08-17T06:51:40;19.90;1.00
6662;DHT22;3367;48.714;8.994;2023-08-17T06:54:08;20.00;1.00
6662;DHT22;3367;48.714;8.994;2023-08-17T06:56:34;20.20;1.00
6662;DHT22;3367;48.714;8.994;2023-08-17T06:59:01;20.20;1.00
6662;DHT22;3367;48.714;8.994;2023-08-17T07:01:28;20.30;1.00
6662;DHT22;3367;48.714;8.994;2023-08-17T07:03:55;20.30;99.90
6662;DHT22;3367;48.714;8.994;2023-08-17T07:06:23;20.40;99.90
6662;DHT22;3367;48.714;8.994;2023-08-17T07:08:50;20.30;99.90
6662;DHT22;3367;48.714;8.994;2023-08-17T07:11:18;20.40;99.90
6662;DHT22;3367;48.714;8.994;2023-08-17T07:13:44;20.40;99.90
6662;DHT22;3367;48.714;8.994;2023-08-17T07:16:12;20.40;99.90
6662;DHT22;3367;48.714;8.994;2023-08-17T07:18:40;20.50;25.80
6662;DHT22;3367;48.714;8.994;2023-08-17T07:21:06;20.60;1.00
6662;DHT22;3367;48.714;8.994;2023-08-17T07:23:34;20.70;99.90
6662;DHT22;3367;48.714;8.994;2023-08-17T07:26:01;20.70;1.00
6662;DHT22;3367;48.714;8.994;2023-08-17T07:28:28;20.70;1.00
6662;DHT22;3367;48.714;8.994;2023-08-17T07:30:55;20.80;1.00
6662;DHT22;3367;48.714;8.994;2023-08-17T07:33:21;20.90;1.00
6662;DHT22;3367;48.714;8.994;2023-08-17T07:35:48;21.00;1.00
6662;DHT22;3367;48.714;8.994;2023-08-17T07:38:15;21.00;99.90
6662;DHT22;3367;48.714;8.994;2023-08-17T07:40:43;21.10;99.90
6662;DHT22;3367;48.714;8.994;2023-08-17T07:43:09;21.30;99.90
6662;DHT22;3367;48.714;8.994;2023-08-17T07:45:36;21.60;99.90
6662;DHT22;3367;48.714;8.994;2023-08-17T07:48:03;22.00;1.00
6662;DHT22;3367;48.714;8.994;2023-08-17T07:50:30;22.40;1.00
6662;DHT22;3367;48.714;8.994;2023-08-17T07:52:57;22.80;99.90
6662;DHT22;3367;48.714;8.994;2023-08-17T07:55:25;23.40;99.90
6662;DHT22;3367;48.714;8.994;2023-08-17T07:57:53;23.60;1.00
6662;DHT22;3367;48.714;8.994;2023-08-17T08:00:20;23.80;1.00
6662;DHT22;3367;48.714;8.994;2023-08-17T08:02:47;23.90;1.00
6662;DHT22;3367;48.714;8.994;2023-08-17T08:05:14;24.00;1.00
6662;DHT22;3367;48.714;8.994;2023-08-17T08:07:40;23.70;1.00
6662;DHT22;3367;48.714;8.994;2023-08-17T08:10:08;23.90;1.00
6662;DHT22;3367;48.714;8.994;2023-08-17T08:12:35;23.80;1.00
6662;DHT22;3367;48.714;8.994;2023-08-17T08:15:03;23.80;1.00
6662;DHT22;3367;48.714;8.994;2023-08-17T08:17:30;23.80;1.00
6662;DHT22;3367;48.714;8.994;2023-08-17T08:19:57;23.70;1.00
6662;DHT22;3367;48.714;8.994;2023-08-17T08:22:24;23.70;1.00
6662;DHT22;3367;48.714;8.994;2023-08-17T08:24:51;23.60;1.00
6662;DHT22;3367;48.714;8.994;2023-08-17T08:27:18;23.60;1.00
6662;DHT22;3367;48.714;8.994;2023-08-17T08:29:45;23.80;1.00
6662;DHT22;3367;48.714;8.994;2023-08-17T08:32:13;23.90;1.00
6662;DHT22;3367;48.714;8.994;2023-08-17T08:34:40;23.80;1.00
6662;DHT22;3367;48.714;8.994;2023-08-17T08:37:07;23.70;1.00
6662;DHT22;3367;48.714;8.994;2023-08-17T08:39:48;23.70;1.00
6662;DHT22;3367;48.714;8.994;2023-08-17T08:42:15;23.60;1.00
6662;DHT22;3367;48.714;8.994;2023-08-17T08:44:42;23.60;1.00
6662;DHT22;3367;48.714;8.994;2023-08-17T08:47:09;23.70;1.00
6662;DHT22;3367;48.714;8.994;2023-08-17T08:49:39;23.70;1.00
6662;DHT22;3367;48.714;8.994;2023-08-17T08:52:07;23.80;1.00
6662;DHT22;3367;48.714;8.994;2023-08-17T08:54:35;23.80;1.00
6662;DHT22;3367;48.714;8.994;2023-08-17T08:57:08;23.60;1.00
6662;DHT22;3367;48.714;8.994;2023-08-17T08:59:35;23.60;1.00
6662;DHT22;3367;48.714;8.994;2023-08-17T09:02:10;23.70;1.00
6662;DHT22;3367;48.714;8.994;2023-08-17T09:04:39;23.70;1.00
6662;DHT22;3367;48.714;8.994;2023-08-17T09:07:06;23.60;1.00
6662;DHT22;3367;48.714;8.994;2023-08-17T09:09:34;23.80;1.00
6662;DHT22;3367;48.714;8.994;2023-08-17T09:12:01;23.80;1.00
6662;DHT22;3367;48.714;8.994;2023-08-17T09:14:28;24.10;1.00
6662;DHT22;3367;48.714;8.994;2023-08-17T09:16:55;24.30;1.00
6662;DHT22;3367;48.714;8.994;2023-08-17T09:19:24;24.40;1.00
6662;DHT22;3367;48.714;8.994;2023-08-17T09:21:53;24.60;99.90
6662;DHT22;3367;48.714;8.994;2023-08-17T09:24:19;24.70;99.90
6662;DHT22;3367;48.714;8.994;2023-08-17T09:26:47;24.60;99.90
6662;DHT22;3367;48.714;8.994;2023-08-17T09:29:17;24.50;99.90
6662;DHT22;3367;48.714;8.994;2023-08-17T09:31:44;24.80;99.90
6662;DHT22;3367;48.714;8.994;2023-08-17T09:34:11;24.80;98.00
6662;DHT22;3367;48.714;8.994;2023-08-17T09:36:40;24.90;99.90
6662;DHT22;3367;48.714;8.994;2023-08-17T09:39:09;25.10;99.90
6662;DHT22;3367;48.714;8.994;2023-08-17T09:41:38;25.20;1.00
6662;DHT22;3367;48.714;8.994;2023-08-17T09:44:06;25.40;10.20
6662;DHT22;3367;48.714;8.994;2023-08-17T09:46:33;25.50;1.00
6662;DHT22;3367;48.714;8.994;2023-08-17T09:49:02;25.70;1.00
6662;DHT22;3367;48.714;8.994;2023-08-17T09:51:30;25.70;1.00
6662;DHT22;3367;48.714;8.994;2023-08-17T09:53:57;25.70;1.00
6662;DHT22;3367;48.714;8.994;2023-08-17T09:56:27;25.50;1.00
6662;DHT22;3367;48.714;8.994;2023-08-17T09:58:54;25.40;1.00
6662;DHT22;3367;48.714;8.994;2023-08-17T10:01:22;25.60;1.00
6662;DHT22;3367;48.714;8.994;2023-08-17T10:03:50;25.60;1.00
6662;DHT22;3367;48.714;8.994;2023-08-17T10:06:22;25.70;1.00
6662;DHT22;3367;48.714;8.994;2023-08-17T10:08:52;25.60;1.00
6662;DHT22;3367;48.714;8.994;2023-08-17T10:11:24;25.90;1.00
6662;DHT22;3367;48.714;8.994;2023-08-17T10:13:57;26.10;1.00
6662;DHT22;3367;48.714;8.994;2023-08-17T10:16:28;26.00;1.00
6662;DHT22;3367;48.714;8.994;2023-08-17T10:19:01;26.00;1.00
6662;DHT22;3367;48.714;8.994;2023-08-17T10:21:37;26.10;1.00
6662;DHT22;3367;48.714;8.994;2023-08-17T10:24:06;26.00;1.00
6662;DHT22;3367;48.714;8.994;2023-08-17T10:26:35;26.00;1.00
6662;DHT22;3367;48.714;8.994;2023-08-17T10:29:02;25.90;1.00
6662;DHT22;3367;48.714;8.994;2023-08-17T10:31:29;26.00;1.00
6662;DHT22;3367;48.714;8.994;2023-08-17T10:33:57;26.00;1.00
6662;DHT22;3367;48.714;8.994;2023-08-17T10:36:24;26.00;1.00
6662;DHT22;3367;48.714;8.994;2023-08-17T10:41:56;25.90;1.00
6662;DHT22;3367;48.714;8.994;2023-08-17T10:44:47;26.10;1.00
6662;DHT22;3367;48.714;8.994;2023-08-17T10:47:24;26.20;1.00
6662;DHT22;3367;48.714;8.994;2023-08-17T10:49:51;26.50;1.00
6662;DHT22;3367;48.714;8.994;2023-08-17T10:52:29;26.80;1.00
6662;DHT22;3367;48.714;8.994;2023-08-17T10:54:58;26.80;1.00
6662;DHT22;3367;48.714;8.994;2023-08-17T10:57:31;26.90;1.00
6662;DHT22;3367;48.714;8.994;2023-08-17T11:00:17;27.20;1.00
6662;DHT22;3367;48.714;8.994;2023-08-17T11:02:52;27.40;1.00
6662;DHT22;3367;48.714;8.994;2023-08-17T11:05:42;27.60;1.00
6662;DHT22;3367;48.714;8.994;2023-08-17T11:08:10;27.70;1.00
6662;DHT22;3367;48.714;8.994;2023-08-17T11:10:39;27.90;1.00
6662;DHT22;3367;48.714;8.994;2023-08-17T11:13:08;28.00;1.00
6662;DHT22;3367;48.714;8.994;2023-08-17T11:15:37;28.20;1.00
6662;DHT22;3367;48.714;8.994;2023-08-17T11:18:05;28.30;1.00
6662;DHT22;3367;48.714;8.994;2023-08-17T11:20:32;28.20;1.00
6662;DHT22;3367;48.714;8.994;2023-08-17T11:22:59;28.30;1.00
6662;DHT22;3367;48.714;8.994;2023-08-17T11:25:27;28.40;1.00
6662;DHT22;3367;48.714;8.994;2023-08-17T11:27:54;28.50;1.00
6662;DHT22;3367;48.714;8.994;2023-08-17T11:30:23;28.40;1.00
6662;DHT22;3367;48.714;8.994;2023-08-17T11:32:52;28.30;1.00
6662;DHT22;3367;48.714;8.994;2023-08-17T11:35:19;28.30;1.00
6662;DHT22;3367;48.714;8.994;2023-08-17T11:37:47;28.30;1.00
6662;DHT22;3367;48.714;8.994;2023-08-17T11:40:15;28.40;1.00
6662;DHT22;3367;48.714;8.994;2023-08-17T11:42:43;28.40;1.00
6662;DHT22;3367;48.714;8.994;2023-08-17T11:45:10;28.50;1.00
6662;DHT22;3367;48.714;8.994;2023-08-17T11:47:42;28.60;1.00
6662;DHT22;3367;48.714;8.994;2023-08-17T11:50:10;28.50;1.00
6662;DHT22;3367;48.714;8.994;2023-08-17T11:52:37;28.50;1.00
6662;DHT22;3367;48.714;8.994;2023-08-17T11:55:05;28.20;1.00
6662;DHT22;3367;48.714;8.994;2023-08-17T11:57:33;28.10;1.00
6662;DHT22;3367;48.714;8.994;2023-08-17T12:00:01;28.30;1.00
6662;DHT22;3367;48.714;8.994;2023-08-17T12:02:29;28.30;1.00
6662;DHT22;3367;48.714;8.994;2023-08-17T12:04:58;28.30;1.00
6662;DHT22;3367;48.714;8.994;2023-08-17T12:07:25;28.40;1.00
6662;DHT22;3367;48.714;8.994;2023-08-17T12:10:02;28.10;1.00
6662;DHT22;3367;48.714;8.994;2023-08-17T12:12:30;27.90;1.00
6662;DHT22;3367;48.714;8.994;2023-08-17T12:14:57;27.80;1.00
6662;DHT22;3367;48.714;8.994;2023-08-17T12:17:24;27.70;1.00
6662;DHT22;3367;48.714;8.994;2023-08-17T12:19:55;27.60;1.00
6662;DHT22;3367;48.714;8.994;2023-08-17T12:22:25;27.50;1.00
6662;DHT22;3367;48.714;8.994;2023-08-17T12:24:52;27.50;1.00
6662;DHT22;3367;48.714;8.994;2023-08-17T12:27:19;27.50;1.00
6662;DHT22;3367;48.714;8.994;2023-08-17T12:29:48;27.50;1.00
6662;DHT22;3367;48.714;8.994;2023-08-17T12:32:16;27.20;1.00
6662;DHT22;3367;48.714;8.994;2023-08-17T12:34:43;26.90;12.00
6662;DHT22;3367;48.714;8.994;2023-08-17T12:37:10;26.60;1.00
6662;DHT22;3367;48.714;8.994;2023-08-17T12:39:38;26.40;1.00
6662;DHT22;3367;48.714;8.994;2023-08-17T12:42:05;26.20;99.90
6662;DHT22;3367;48.714;8.994;2023-08-17T12:44:32;26.00;99.90
6662;DHT22;3367;48.714;8.994;2023-08-17T12:46:59;25.80;1.00
6662;DHT22;3367;48.714;8.994;2023-08-17T12:49:25;25.30;99.90
6662;DHT22;3367;48.714;8.994;2023-08-17T12:51:52;24.80;1.00
6662;DHT22;3367;48.714;8.994;2023-08-17T12:54:19;24.50;1.00
6662;DHT22;3367;48.714;8.994;2023-08-17T12:56:47;24.30;99.10
6662;DHT22;3367;48.714;8.994;2023-08-17T12:59:14;23.70;1.00
6662;DHT22;3367;48.714;8.994;2023-08-17T13:01:41;23.10;1.00
6662;DHT22;3367;48.714;8.994;2023-08-17T13:04:07;22.70;1.00
6662;DHT22;3367;48.714;8.994;2023-08-17T13:06:34;22.50;63.60
6662;DHT22;3367;48.714;8.994;2023-08-17T13:09:01;22.30;99.90
6662;DHT22;3367;48.714;8.994;2023-08-17T13:11:28;22.30;1.00
6662;DHT22;3367;48.714;8.994;2023-08-17T13:13:56;22.20;77.40
6662;DHT22;3367;48.714;8.994;2023-08-17T13:16:23;22.20;37.60
6662;DHT22;3367;48.714;8.994;2023-08-17T13:18:49;22.00;99.90
6662;DHT22;3367;48.714;8.994;2023-08-17T13:21:16;21.80;1.00
6662;DHT22;3367;48.714;8.994;2023-08-17T13:23:45;21.60;99.90
6662;DHT22;3367;48.714;8.994;2023-08-17T13:26:12;21.60;1.00
6662;DHT22;3367;48.714;8.994;2023-08-17T13:28:39;21.60;99.90
6662;DHT22;3367;48.714;8.994;2023-08-17T13:31:07;21.70;1.00
6662;DHT22;3367;48.714;8.994;2023-08-17T13:33:35;21.70;1.00
6662;DHT22;3367;48.714;8.994;2023-08-17T13:36:02;21.80;1.00
6662;DHT22;3367;48.714;8.994;2023-08-17T13:38:29;21.80;1.00
6662;DHT22;3367;48.714;8.994;2023-08-17T13:40:55;21.90;1.00
6662;DHT22;3367;48.714;8.994;2023-08-17T13:43:24;22.00;99.90
6662;DHT22;3367;48.714;8.994;2023-08-17T13:45:51;22.00;99.90
6662;DHT22;3367;48.714;8.994;2023-08-17T13:48:19;22.00;1.00
6662;DHT22;3367;48.714;8.994;2023-08-17T13:50:45;22.10;1.00
6662;DHT22;3367;48.714;8.994;2023-08-17T13:53:12;22.20;99.90
6662;DHT22;3367;48.714;8.994;2023-08-17T13:55:39;22.20;99.90
6662;DHT22;3367;48.714;8.994;2023-08-17T13:58:06;22.20;1.00
6662;DHT22;3367;48.714;8.994;2023-08-17T14:00:35;22.20;1.00
6662;DHT22;3367;48.714;8.994;2023-08-17T14:03:02;22.30;1.00
6662;DHT22;3367;48.714;8.994;2023-08-17T14:05:30;22.30;1.00
6662;DHT22;3367;48.714;8.994;2023-08-17T14:07:57;22.40;1.00
6662;DHT22;3367;48.714;8.994;2023-08-17T14:10:24;22.40;1.00
6662;DHT22;3367;48.714;8.994;2023-08-17T14:12:50;22.40;1.00
6662;DHT22;3367;48.714;8.994;2023-08-17T14:15:18;22.40;1.00
6662;DHT22;3367;48.714;8.994;2023-08-17T14:17:44;22.50;1.00
6662;DHT22;3367;48.714;8.994;2023-08-17T14:20:11;22.50;1.00
6662;DHT22;3367;48.714;8.994;2023-08-17T14:22:39;22.50;1.00
6662;DHT22;3367;48.714;8.994;2023-08-17T14:25:06;22.50;99.90
6662;DHT22;3367;48.714;8.994;2023-08-17T14:27:33;22.50;99.90
6662;DHT22;3367;48.714;8.994;2023-08-17T14:30:00;22.70;99.90
6662;DHT22;3367;48.714;8.994;2023-08-17T14:32:28;22.60;1.00
6662;DHT22;3367;48.714;8.994;2023-08-17T14:34:55;22.70;1.00
6662;DHT22;3367;48.714;8.994;2023-08-17T14:37:21;22.90;1.00
6662;DHT22;3367;48.714;8.994;2023-08-17T14:39:49;22.90;1.00
6662;DHT22;3367;48.714;8.994;2023-08-17T14:42:16;23.00;99.90
6662;DHT22;3367;48.714;8.994;2023-08-17T14:44:43;23.30;99.90
6662;DHT22;3367;48.714;8.994;2023-08-17T14:47:12;23.40;1.00
6662;DHT22;3367;48.714;8.994;2023-08-17T14:49:39;23.60;1.00
6662;DHT22;3367;48.714;8.994;2023-08-17T14:52:06;23.70;1.00
6662;DHT22;3367;48.714;8.994;2023-08-17T14:54:32;23.80;99.90
6662;DHT22;3367;48.714;8.994;2023-08-17T14:57:01;23.90;99.90
6662;DHT22;3367;48.714;8.994;2023-08-17T14:59:27;23.90;99.90
6662;DHT22;3367;48.714;8.994;2023-08-17T15:01:54;23.90;1.00
6662;DHT22;3367;48.714;8.994;2023-08-17T15:04:22;23.90;1.00
6662;DHT22;3367;48.714;8.994;2023-08-17T15:06:48;24.10;1.00
6662;DHT22;3367;48.714;8.994;2023-08-17T15:09:16;24.10;1.00
6662;DHT22;3367;48.714;8.994;2023-08-17T15:11:42;24.10;1.00
6662;DHT22;3367;48.714;8.994;2023-08-17T15:14:11;24.20;1.00
6662;DHT22;3367;48.714;8.994;2023-08-17T15:16:37;24.20;1.00
6662;DHT22;3367;48.714;8.994;2023-08-17T15:19:04;24.30;1.00
6662;DHT22;3367;48.714;8.994;2023-08-17T15:21:31;24.50;1.00
6662;DHT22;3367;48.714;8.994;2023-08-17T15:23:57;24.60;1.00
6662;DHT22;3367;48.714;8.994;2023-08-17T15:26:24;24.60;1.00
6662;DHT22;3367;48.714;8.994;2023-08-17T15:28:51;24.60;1.00
6662;DHT22;3367;48.714;8.994;2023-08-17T15:31:19;24.60;1.00
6662;DHT22;3367;48.714;8.994;2023-08-17T15:33:46;24.80;1.00
6662;DHT22;3367;48.714;8.994;2023-08-17T15:36:13;24.70;1.00
6662;DHT22;3367;48.714;8.994;2023-08-17T15:38:44;24.80;1.00
6662;DHT22;3367;48.714;8.994;2023-08-17T15:41:10;24.80;97.30
6662;DHT22;3367;48.714;8.994;2023-08-17T15:43:37;24.70;99.90
6662;DHT22;3367;48.714;8.994;2023-08-17T15:46:04;24.90;99.90
6662;DHT22;3367;48.714;8.994;2023-08-17T15:48:32;25.00;33.80
6662;DHT22;3367;48.714;8.994;2023-08-17T15:50:59;25.00;58.00
6662;DHT22;3367;48.714;8.994;2023-08-17T15:53:25;25.00;1.00
6662;DHT22;3367;48.714;8.994;2023-08-17T15:55:52;25.30;1.00
6662;DHT22;3367;48.714;8.994;2023-08-17T15:58:19;25.40;1.00
6662;DHT22;3367;48.714;8.994;2023-08-17T16:00:46;25.60;1.00
6662;DHT22;3367;48.714;8.994;2023-08-17T16:03:14;25.60;1.00
6662;DHT22;3367;48.714;8.994;2023-08-17T16:05:42;25.60;1.00
6662;DHT22;3367;48.714;8.994;2023-08-17T16:08:09;25.70;1.00
6662;DHT22;3367;48.714;8.994;2023-08-17T16:10:36;25.70;1.00
6662;DHT22;3367;48.714;8.994;2023-08-17T16:13:03;25.80;1.00
6662;DHT22;3367;48.714;8.994;2023-08-17T16:15:30;25.80;99.90
6662;DHT22;3367;48.714;8.994;2023-08-17T16:17:57;25.90;99.90
6662;DHT22;3367;48.714;8.994;2023-08-17T16:20:23;25.90;50.90